^^
Station Historical Data
Daily Summary for January 19, 2018 Units:  Both    English   Metric
« Previous Day
Next Day »
Daily Weekly Monthly Yearly Custom
  High: Low: Average:
Temperature: TemperatureF °F /  -17.8 °C 68.5 °F /  20.3 °C 79 °F /  26.1 °C
Dew Point: DewpointF °F /  -17.8 °C 42.1 °F /  5.6 °C 49.6 °F /  9.8 °C
Humidity: Humidity% 17% 38%
Wind Speed: WindSpeedMPHmph /  0km/h - 3mph /  4.8km/h
Wind Gust: WindSpeedGustMPHmph /  0km/h - -
Wind- - SSE
Pressure: PressureIn in /  0 hPa 29.49 in /  998.5 hPa -
Precipitation: 0.00 in /  0 mm    
Historical Graphs
 
 
Tabular Data for January 19, 2018
Time Temperature Dew Point Pressure Wind Wind Speed Wind Gust Humidity Rainfall Rate (Hourly) solar Conditions
TemperatureF °F /  -17.8 °C DewpointF °F /  -17.8 °C PressureInin /  0hPa Calm     Humidity% HourlyPrecipInin /  0mm SolarRadiationWatts/m^2 W/m2 Conditions
00:04 74.7 °F /  23.7 °C 52.0 °F /  11.1 °C 29.69in /  1005.3hPa Calm   3.0mph /  4.8km/h 45% 0.00in /  0mm 0.0 W/m2
00:09 74.5 °F /  23.6 °C 51.8 °F /  11 °C 29.68in /  1005hPa SSW 6.0mph /  9.7km/h 6.0mph /  9.7km/h 45% 0.00in /  0mm 0.0 W/m2
00:15 74.1 °F /  23.4 °C 51.4 °F /  10.8 °C 29.68in /  1005hPa SW 2.9mph /  4.7km/h 5.0mph /  8km/h 45% 0.00in /  0mm 0.0 W/m2
00:20 74.1 °F /  23.4 °C 51.4 °F /  10.8 °C 29.68in /  1005hPa South 2.0mph /  3.2km/h 4.0mph /  6.4km/h 45% 0.00in /  0mm 0.0 W/m2
00:26 73.9 °F /  23.3 °C 51.8 °F /  11 °C 29.67in /  1004.6hPa Calm   5.0mph /  8km/h 46% 0.00in /  0mm 0.0 W/m2
00:31 73.8 °F /  23.2 °C 51.1 °F /  10.6 °C 29.68in /  1005hPa SSE 2.0mph /  3.2km/h 6.0mph /  9.7km/h 45% 0.00in /  0mm 0.0 W/m2
00:36 73.9 °F /  23.3 °C 51.3 °F /  10.7 °C 29.67in /  1004.6hPa SSE 2.9mph /  4.7km/h 11.0mph /  17.7km/h 45% 0.00in /  0mm 0.0 W/m2
00:41 73.9 °F /  23.3 °C 51.3 °F /  10.7 °C 29.67in /  1004.6hPa SSE 2.9mph /  4.7km/h 6.0mph /  9.7km/h 45% 0.00in /  0mm 0.0 W/m2
00:46 74.1 °F /  23.4 °C 51.4 °F /  10.8 °C 29.67in /  1004.6hPa SSE 0.9mph /  1.4km/h 7.0mph /  11.3km/h 45% 0.00in /  0mm 0.0 W/m2
00:51 74.1 °F /  23.4 °C 50.9 °F /  10.5 °C 29.67in /  1004.6hPa SW 2.9mph /  4.7km/h 5.0mph /  8km/h 44% 0.00in /  0mm 0.0 W/m2
00:56 74.1 °F /  23.4 °C 50.2 °F /  10.1 °C 29.66in /  1004.3hPa South 6.0mph /  9.7km/h 13.0mph /  20.9km/h 43% 0.00in /  0mm 0.0 W/m2
01:02 74.1 °F /  23.4 °C 50.2 °F /  10.1 °C 29.66in /  1004.3hPa SSW 4.9mph /  7.9km/h 9.0mph /  14.5km/h 43% 0.00in /  0mm 0.0 W/m2
01:07 74.3 °F /  23.5 °C 50.4 °F /  10.2 °C 29.65in /  1003.9hPa SSW 2.9mph /  4.7km/h 13.0mph /  20.9km/h 43% 0.00in /  0mm 0.0 W/m2
01:12 74.3 °F /  23.5 °C 49.6 °F /  9.8 °C 29.65in /  1003.9hPa South 4.0mph /  6.4km/h 13.0mph /  20.9km/h 42% 0.00in /  0mm 0.0 W/m2
01:17 74.3 °F /  23.5 °C 50.4 °F /  10.2 °C 29.65in /  1003.9hPa SW 4.0mph /  6.4km/h 9.0mph /  14.5km/h 43% 0.00in /  0mm 0.0 W/m2
01:23 74.1 °F /  23.4 °C 50.2 °F /  10.1 °C 29.65in /  1003.9hPa SSE 2.0mph /  3.2km/h 9.0mph /  14.5km/h 43% 0.00in /  0mm 0.0 W/m2
01:28 74.1 °F /  23.4 °C 50.2 °F /  10.1 °C 29.65in /  1003.9hPa South 10.1mph /  16.3km/h 12.0mph /  19.3km/h 43% 0.00in /  0mm 0.0 W/m2
01:33 74.1 °F /  23.4 °C 50.2 °F /  10.1 °C 29.65in /  1003.9hPa SSE 4.9mph /  7.9km/h 9.0mph /  14.5km/h 43% 0.00in /  0mm 0.0 W/m2
01:38 74.3 °F /  23.5 °C 50.4 °F /  10.2 °C 29.65in /  1003.9hPa ESE 6.9mph /  11.1km/h 16.0mph /  25.7km/h 43% 0.00in /  0mm 0.0 W/m2
01:43 74.5 °F /  23.6 °C 50.5 °F /  10.3 °C 29.65in /  1003.9hPa South 2.9mph /  4.7km/h 10.0mph /  16.1km/h 43% 0.00in /  0mm 0.0 W/m2
01:48 74.5 °F /  23.6 °C 50.5 °F /  10.3 °C 29.64in /  1003.6hPa SW 6.9mph /  11.1km/h 10.0mph /  16.1km/h 43% 0.00in /  0mm 0.0 W/m2
01:53 74.5 °F /  23.6 °C 50.5 °F /  10.3 °C 29.64in /  1003.6hPa SSW 8.9mph /  14.3km/h 13.0mph /  20.9km/h 43% 0.00in /  0mm 0.0 W/m2
01:58 74.3 °F /  23.5 °C 50.4 °F /  10.2 °C 29.64in /  1003.6hPa SSE 2.9mph /  4.7km/h 11.0mph /  17.7km/h 43% 0.00in /  0mm 0.0 W/m2
02:03 74.1 °F /  23.4 °C 50.2 °F /  10.1 °C 29.64in /  1003.6hPa WSW 6.9mph /  11.1km/h 8.0mph /  12.9km/h 43% 0.00in /  0mm 0.0 W/m2
02:08 73.9 °F /  23.3 °C 50.0 °F /  10 °C 29.64in /  1003.6hPa SSE 13.0mph /  20.9km/h 13.0mph /  20.9km/h 43% 0.00in /  0mm 0.0 W/m2
02:14 73.9 °F /  23.3 °C 50.7 °F /  10.4 °C 29.64in /  1003.6hPa SSE 2.9mph /  4.7km/h 9.0mph /  14.5km/h 44% 0.00in /  0mm 0.0 W/m2
02:19 73.8 °F /  23.2 °C 50.5 °F /  10.3 °C 29.64in /  1003.6hPa South 2.0mph /  3.2km/h 7.0mph /  11.3km/h 44% 0.00in /  0mm 0.0 W/m2
02:24 73.8 °F /  23.2 °C 50.5 °F /  10.3 °C 29.64in /  1003.6hPa South 0.9mph /  1.4km/h 5.0mph /  8km/h 44% 0.00in /  0mm 0.0 W/m2
02:29 73.8 °F /  23.2 °C 50.5 °F /  10.3 °C 29.65in /  1003.9hPa WSW 2.0mph /  3.2km/h 5.0mph /  8km/h 44% 0.00in /  0mm 0.0 W/m2
02:34 73.8 °F /  23.2 °C 50.5 °F /  10.3 °C 29.65in /  1003.9hPa Calm   3.0mph /  4.8km/h 44% 0.00in /  0mm 0.0 W/m2
02:39 73.6 °F /  23.1 °C 50.4 °F /  10.2 °C 29.65in /  1003.9hPa NE 4.0mph /  6.4km/h 4.0mph /  6.4km/h 44% 0.00in /  0mm 0.0 W/m2
02:44 73.2 °F /  22.9 °C 50.0 °F /  10 °C 29.65in /  1003.9hPa NNW 2.9mph /  4.7km/h 4.0mph /  6.4km/h 44% 0.00in /  0mm 0.0 W/m2
02:49 73.0 °F /  22.8 °C 50.4 °F /  10.2 °C 29.65in /  1003.9hPa WNW 4.0mph /  6.4km/h 5.0mph /  8km/h 45% 0.00in /  0mm 0.0 W/m2
02:55 72.9 °F /  22.7 °C 50.4 °F /  10.2 °C 29.65in /  1003.9hPa Calm   2.0mph /  3.2km/h 45% 0.00in /  0mm 0.0 W/m2
03:00 72.7 °F /  22.6 °C 50.7 °F /  10.4 °C 29.65in /  1003.9hPa Calm   1.0mph /  1.6km/h 46% 0.00in /  0mm 0.0 W/m2
03:05 72.3 °F /  22.4 °C 50.4 °F /  10.2 °C 29.64in /  1003.6hPa Calm   1.0mph /  1.6km/h 46% 0.00in /  0mm 0.0 W/m2
03:11 72.1 °F /  22.3 °C 50.2 °F /  10.1 °C 29.64in /  1003.6hPa Calm     46% 0.00in /  0mm 0.0 W/m2
03:16 72.0 °F /  22.2 °C 50.0 °F /  10 °C 29.64in /  1003.6hPa Calm   3.0mph /  4.8km/h 46% 0.00in /  0mm 0.0 W/m2
03:21 72.0 °F /  22.2 °C 50.7 °F /  10.4 °C 29.64in /  1003.6hPa WNW 0.9mph /  1.4km/h 1.0mph /  1.6km/h 47% 0.00in /  0mm 0.0 W/m2
03:26 71.8 °F /  22.1 °C 50.5 °F /  10.3 °C 29.64in /  1003.6hPa Calm   3.0mph /  4.8km/h 47% 0.00in /  0mm 0.0 W/m2
03:31 71.4 °F /  21.9 °C 50.2 °F /  10.1 °C 29.64in /  1003.6hPa NW 0.9mph /  1.4km/h 3.0mph /  4.8km/h 47% 0.00in /  0mm 0.0 W/m2
03:36 71.4 °F /  21.9 °C 50.2 °F /  10.1 °C 29.64in /  1003.6hPa SW 2.0mph /  3.2km/h 9.0mph /  14.5km/h 47% 0.00in /  0mm 0.0 W/m2
03:41 72.0 °F /  22.2 °C 50.0 °F /  10 °C 29.64in /  1003.6hPa SW 2.0mph /  3.2km/h 5.0mph /  8km/h 46% 0.00in /  0mm 0.0 W/m2
03:46 72.0 °F /  22.2 °C 50.0 °F /  10 °C 29.64in /  1003.6hPa WSW 2.9mph /  4.7km/h 6.0mph /  9.7km/h 46% 0.00in /  0mm 0.0 W/m2
03:51 72.1 °F /  22.3 °C 50.2 °F /  10.1 °C 29.64in /  1003.6hPa South 0.9mph /  1.4km/h 4.0mph /  6.4km/h 46% 0.00in /  0mm 0.0 W/m2
03:56 72.1 °F /  22.3 °C 50.2 °F /  10.1 °C 29.64in /  1003.6hPa NNE 2.9mph /  4.7km/h 3.0mph /  4.8km/h 46% 0.00in /  0mm 0.0 W/m2
04:01 72.0 °F /  22.2 °C 50.0 °F /  10 °C 29.64in /  1003.6hPa NW 2.9mph /  4.7km/h 6.0mph /  9.7km/h 46% 0.00in /  0mm 0.0 W/m2
04:06 71.8 °F /  22.1 °C 50.5 °F /  10.3 °C 29.65in /  1003.9hPa Calm   4.0mph /  6.4km/h 47% 0.00in /  0mm 0.0 W/m2
04:11 71.4 °F /  21.9 °C 50.2 °F /  10.1 °C 29.64in /  1003.6hPa Calm   1.0mph /  1.6km/h 47% 0.00in /  0mm 0.0 W/m2
04:16 71.2 °F /  21.8 °C 50.5 °F /  10.3 °C 29.64in /  1003.6hPa Calm     48% 0.00in /  0mm 0.0 W/m2
04:21 71.1 °F /  21.7 °C 50.4 °F /  10.2 °C 29.64in /  1003.6hPa Calm   2.0mph /  3.2km/h 48% 0.00in /  0mm 0.0 W/m2
04:26 70.9 °F /  21.6 °C 50.2 °F /  10.1 °C 29.64in /  1003.6hPa Calm   1.0mph /  1.6km/h 48% 0.00in /  0mm 0.0 W/m2
04:31 70.5 °F /  21.4 °C 49.8 °F /  9.9 °C 29.64in /  1003.6hPa Calm   4.0mph /  6.4km/h 48% 0.00in /  0mm 0.0 W/m2
04:36 70.5 °F /  21.4 °C 50.4 °F /  10.2 °C 29.64in /  1003.6hPa Calm     49% 0.00in /  0mm 0.0 W/m2
04:42 70.3 °F /  21.3 °C 50.4 °F /  10.2 °C 29.64in /  1003.6hPa Calm     49% 0.00in /  0mm 0.0 W/m2
04:47 70.2 °F /  21.2 °C 50.2 °F /  10.1 °C 29.64in /  1003.6hPa Calm   1.0mph /  1.6km/h 49% 0.00in /  0mm 0.0 W/m2
04:52 70.2 °F /  21.2 °C 50.2 °F /  10.1 °C 29.64in /  1003.6hPa Calm   1.0mph /  1.6km/h 49% 0.00in /  0mm 0.0 W/m2
04:58 70.0 °F /  21.1 °C 50.0 °F /  10 °C 29.64in /  1003.6hPa Calm     49% 0.00in /  0mm 0.0 W/m2
05:03 70.0 °F /  21.1 °C 50.5 °F /  10.3 °C 29.64in /  1003.6hPa Calm     50% 0.00in /  0mm 0.0 W/m2
05:08 69.6 °F /  20.9 °C 50.2 °F /  10.1 °C 29.64in /  1003.6hPa Calm   1.0mph /  1.6km/h 50% 0.00in /  0mm 0.0 W/m2
05:14 69.6 °F /  20.9 °C 49.6 °F /  9.8 °C 29.64in /  1003.6hPa West 0.9mph /  1.4km/h 2.0mph /  3.2km/h 49% 0.00in /  0mm 0.0 W/m2
05:19 69.4 °F /  20.8 °C 50.0 °F /  10 °C 29.65in /  1003.9hPa Calm     50% 0.00in /  0mm 0.0 W/m2
05:24 69.4 °F /  20.8 °C 50.0 °F /  10 °C 29.65in /  1003.9hPa Calm   1.0mph /  1.6km/h 50% 0.00in /  0mm 0.0 W/m2
05:29 69.3 °F /  20.7 °C 50.4 °F /  10.2 °C 29.65in /  1003.9hPa Calm     51% 0.00in /  0mm 0.0 W/m2
05:35 69.1 °F /  20.6 °C 50.2 °F /  10.1 °C 29.65in /  1003.9hPa Calm   1.0mph /  1.6km/h 51% 0.00in /  0mm 0.0 W/m2
05:40 69.1 °F /  20.6 °C 50.2 °F /  10.1 °C 29.65in /  1003.9hPa Calm     51% 0.00in /  0mm 0.0 W/m2
05:45 68.9 °F /  20.5 °C 50.0 °F /  10 °C 29.65in /  1003.9hPa Calm     51% 0.00in /  0mm 0.0 W/m2
05:50 68.7 °F /  20.4 °C 50.4 °F /  10.2 °C 29.66in /  1004.3hPa Calm   1.0mph /  1.6km/h 52% 0.00in /  0mm 0.0 W/m2
05:55 68.5 °F /  20.3 °C 50.2 °F /  10.1 °C 29.66in /  1004.3hPa Calm   1.0mph /  1.6km/h 52% 0.00in /  0mm 0.0 W/m2
06:00 68.5 °F /  20.3 °C 50.2 °F /  10.1 °C 29.66in /  1004.3hPa Calm   1.0mph /  1.6km/h 52% 0.00in /  0mm 0.0 W/m2
06:06 68.9 °F /  20.5 °C 49.5 °F /  9.7 °C 29.66in /  1004.3hPa SSW 2.0mph /  3.2km/h 3.0mph /  4.8km/h 50% 0.00in /  0mm 0.0 W/m2
06:10 69.4 °F /  20.8 °C 50.0 °F /  10 °C 29.66in /  1004.3hPa SW 0.9mph /  1.4km/h 2.0mph /  3.2km/h 50% 0.00in /  0mm 0.0 W/m2
06:15 69.6 °F /  20.9 °C 49.6 °F /  9.8 °C 29.66in /  1004.3hPa Calm     49% 0.00in /  0mm 0.0 W/m2
06:20 69.6 °F /  20.9 °C 49.6 °F /  9.8 °C 29.66in /  1004.3hPa Calm     49% 0.00in /  0mm 0.0 W/m2
06:25 69.4 °F /  20.8 °C 50.0 °F /  10 °C 29.66in /  1004.3hPa Calm     50% 0.00in /  0mm 5.0 W/m2
06:31 69.3 °F /  20.7 °C 49.8 °F /  9.9 °C 29.66in /  1004.3hPa Calm   2.0mph /  3.2km/h 50% 0.00in /  0mm 7.0 W/m2
06:36 69.3 °F /  20.7 °C 49.8 °F /  9.9 °C 29.67in /  1004.6hPa SE 2.9mph /  4.7km/h 4.0mph /  6.4km/h 50% 0.00in /  0mm 11.0 W/m2
06:41 69.3 °F /  20.7 °C 49.3 °F /  9.6 °C 29.67in /  1004.6hPa Calm   6.0mph /  9.7km/h 49% 0.00in /  0mm 12.0 W/m2
06:47 69.4 °F /  20.8 °C 48.9 °F /  9.4 °C 29.67in /  1004.6hPa Calm   1.0mph /  1.6km/h 48% 0.00in /  0mm 14.0 W/m2
06:53 70.0 °F /  21.1 °C 49.5 °F /  9.7 °C 29.67in /  1004.6hPa Calm   8.0mph /  12.9km/h 48% 0.00in /  0mm 18.0 W/m2
06:58 70.3 °F /  21.3 °C 49.6 °F /  9.8 °C 29.67in /  1004.6hPa SSE 4.9mph /  7.9km/h 7.0mph /  11.3km/h 48% 0.00in /  0mm 21.0 W/m2
07:03 70.7 °F /  21.5 °C 49.5 °F /  9.7 °C 29.67in /  1004.6hPa SE 2.9mph /  4.7km/h 4.0mph /  6.4km/h 47% 0.00in /  0mm 21.0 W/m2
07:08 71.1 °F /  21.7 °C 49.8 °F /  9.9 °C 29.67in /  1004.6hPa South 6.0mph /  9.7km/h 8.0mph /  12.9km/h 47% 0.00in /  0mm 23.0 W/m2
07:13 71.2 °F /  21.8 °C 50.0 °F /  10 °C 29.67in /  1004.6hPa SSW 0.9mph /  1.4km/h 6.0mph /  9.7km/h 47% 0.00in /  0mm 25.0 W/m2
07:18 71.8 °F /  22.1 °C 49.8 °F /  9.9 °C 29.67in /  1004.6hPa South 0.9mph /  1.4km/h 10.0mph /  16.1km/h 46% 0.00in /  0mm 26.0 W/m2
07:24 72.1 °F /  22.3 °C 49.1 °F /  9.5 °C 29.66in /  1004.3hPa SSW 0.9mph /  1.4km/h 11.0mph /  17.7km/h 44% 0.00in /  0mm 28.0 W/m2
07:29 72.7 °F /  22.6 °C 48.9 °F /  9.4 °C 29.66in /  1004.3hPa SSE 2.9mph /  4.7km/h 11.0mph /  17.7km/h 43% 0.00in /  0mm 30.0 W/m2
07:35 73.2 °F /  22.9 °C 48.7 °F /  9.3 °C 29.65in /  1003.9hPa SSE 10.1mph /  16.3km/h 16.0mph /  25.7km/h 42% 0.00in /  0mm 32.0 W/m2
07:40 73.6 °F /  23.1 °C 49.1 °F /  9.5 °C 29.65in /  1003.9hPa ESE 4.9mph /  7.9km/h 13.0mph /  20.9km/h 42% 0.00in /  0mm 33.0 W/m2
07:45 73.9 °F /  23.3 °C 48.7 °F /  9.3 °C 29.65in /  1003.9hPa SSE 6.9mph /  11.1km/h 9.0mph /  14.5km/h 41% 0.00in /  0mm 53.0 W/m2
07:51 74.5 °F /  23.6 °C 48.6 °F /  9.2 °C 29.65in /  1003.9hPa ESE 4.0mph /  6.4km/h 12.0mph /  19.3km/h 40% 0.00in /  0mm 98.0 W/m2
07:56 74.8 °F /  23.8 °C 48.2 °F /  9 °C 29.65in /  1003.9hPa SE 6.0mph /  9.7km/h 14.0mph /  22.5km/h 39% 0.00in /  0mm 283.0 W/m2
08:01 75.4 °F /  24.1 °C 48.0 °F /  8.9 °C 29.65in /  1003.9hPa SE 6.0mph /  9.7km/h 21.0mph /  33.8km/h 38% 0.00in /  0mm 325.0 W/m2
08:07 75.7 °F /  24.3 °C 48.4 °F /  9.1 °C 29.65in /  1003.9hPa SE 10.1mph /  16.3km/h 16.0mph /  25.7km/h 38% 0.00in /  0mm 355.0 W/m2
08:12 76.3 °F /  24.6 °C 48.0 °F /  8.9 °C 29.65in /  1003.9hPa ESE 8.9mph /  14.3km/h 18.0mph /  29km/h 37% 0.00in /  0mm 376.0 W/m2
08:17 76.6 °F /  24.8 °C 48.4 °F /  9.1 °C 29.65in /  1003.9hPa SSE 12.1mph /  19.5km/h 20.0mph /  32.2km/h 37% 0.00in /  0mm 397.0 W/m2
08:23 76.8 °F /  24.9 °C 47.8 °F /  8.8 °C 29.65in /  1003.9hPa ESE 13.0mph /  20.9km/h 18.0mph /  29km/h 36% 0.00in /  0mm 424.0 W/m2
08:28 77.2 °F /  25.1 °C 47.5 °F /  8.6 °C 29.65in /  1003.9hPa SSE 4.9mph /  7.9km/h 17.0mph /  27.4km/h 35% 0.00in /  0mm 443.0 W/m2
08:33 77.4 °F /  25.2 °C 48.4 °F /  9.1 °C 29.65in /  1003.9hPa South 6.0mph /  9.7km/h 18.0mph /  29km/h 36% 0.00in /  0mm 461.0 W/m2
08:39 77.9 °F /  25.5 °C 47.3 °F /  8.5 °C 29.65in /  1003.9hPa South 4.9mph /  7.9km/h 20.0mph /  32.2km/h 34% 0.00in /  0mm 489.0 W/m2
08:44 78.3 °F /  25.7 °C 47.7 °F /  8.7 °C 29.65in /  1003.9hPa SE 10.1mph /  16.3km/h 22.0mph /  35.4km/h 34% 0.00in /  0mm 508.0 W/m2
08:49 78.4 °F /  25.8 °C 46.9 °F /  8.3 °C 29.65in /  1003.9hPa SE 6.9mph /  11.1km/h 19.0mph /  30.6km/h 33% 0.00in /  0mm 526.0 W/m2
08:55 79.0 °F /  26.1 °C 47.5 °F /  8.6 °C 29.65in /  1003.9hPa SE 8.1mph /  13km/h 12.0mph /  19.3km/h 33% 0.00in /  0mm 548.0 W/m2
09:00 79.3 °F /  26.3 °C 46.9 °F /  8.3 °C 29.65in /  1003.9hPa ESE 15.0mph /  24.1km/h 23.0mph /  37km/h 32% 0.00in /  0mm 568.0 W/m2
09:05 79.5 °F /  26.4 °C 46.2 °F /  7.9 °C 29.65in /  1003.9hPa SSE 8.1mph /  13km/h 21.0mph /  33.8km/h 31% 0.00in /  0mm 585.0 W/m2
09:11 80.1 °F /  26.7 °C 46.8 °F /  8.2 °C 29.65in /  1003.9hPa SSE 6.0mph /  9.7km/h 13.0mph /  20.9km/h 31% 0.00in /  0mm 608.0 W/m2
09:16 80.4 °F /  26.9 °C 46.9 °F /  8.3 °C 29.65in /  1003.9hPa SE 12.1mph /  19.5km/h 12.1mph /  19.5km/h 31% 0.00in /  0mm 626.0 W/m2
09:21 80.8 °F /  27.1 °C 46.4 °F /  8 °C 29.65in /  1003.9hPa ESE 2.9mph /  4.7km/h 20.0mph /  32.2km/h 30% 0.00in /  0mm 645.0 W/m2
09:27 81.1 °F /  27.3 °C 46.8 °F /  8.2 °C 29.65in /  1003.9hPa South 11.0mph /  17.7km/h 14.0mph /  22.5km/h 30% 0.00in /  0mm 666.0 W/m2
09:32 81.3 °F /  27.4 °C 46.9 °F /  8.3 °C 29.65in /  1003.9hPa SE 8.9mph /  14.3km/h 16.0mph /  25.7km/h 30% 0.00in /  0mm 682.0 W/m2
09:37 81.7 °F /  27.6 °C 47.3 °F /  8.5 °C 29.65in /  1003.9hPa SE 4.0mph /  6.4km/h 14.0mph /  22.5km/h 30% 0.00in /  0mm 700.0 W/m2
09:43 82.0 °F /  27.8 °C 46.6 °F /  8.1 °C 29.65in /  1003.9hPa SE 6.9mph /  11.1km/h 9.0mph /  14.5km/h 29% 0.00in /  0mm 717.0 W/m2
09:48 82.6 °F /  28.1 °C 46.2 °F /  7.9 °C 29.65in /  1003.9hPa SSE 10.1mph /  16.3km/h 17.0mph /  27.4km/h 28% 0.00in /  0mm 737.0 W/m2
09:53 82.8 °F /  28.2 °C 47.3 °F /  8.5 °C 29.65in /  1003.9hPa SE 8.9mph /  14.3km/h 13.0mph /  20.9km/h 29% 0.00in /  0mm 747.0 W/m2
09:59 83.1 °F /  28.4 °C 46.6 °F /  8.1 °C 29.65in /  1003.9hPa SSE 16.1mph /  25.9km/h 18.0mph /  29km/h 28% 0.00in /  0mm 763.0 W/m2
10:04 83.1 °F /  28.4 °C 46.6 °F /  8.1 °C 29.65in /  1003.9hPa ESE 6.0mph /  9.7km/h 11.0mph /  17.7km/h 28% 0.00in /  0mm 782.0 W/m2
10:09 83.5 °F /  28.6 °C 46.9 °F /  8.3 °C 29.65in /  1003.9hPa SSE 4.9mph /  7.9km/h 16.0mph /  25.7km/h 28% 0.00in /  0mm 798.0 W/m2
10:15 84.0 °F /  28.9 °C 47.5 °F /  8.6 °C 29.65in /  1003.9hPa SSW 8.9mph /  14.3km/h 15.0mph /  24.1km/h 28% 0.00in /  0mm 814.0 W/m2
10:21 84.2 °F /  29 °C 46.6 °F /  8.1 °C 29.65in /  1003.9hPa SE 6.9mph /  11.1km/h 13.0mph /  20.9km/h 27% 0.00in /  0mm 831.0 W/m2
10:26 84.4 °F /  29.1 °C 46.8 °F /  8.2 °C 29.64in /  1003.6hPa South 6.9mph /  11.1km/h 14.0mph /  22.5km/h 27% 0.00in /  0mm 846.0 W/m2
10:31 84.6 °F /  29.2 °C 46.9 °F /  8.3 °C 29.64in /  1003.6hPa ESE 8.1mph /  13km/h 16.0mph /  25.7km/h 27% 0.00in /  0mm 858.0 W/m2
10:36 84.9 °F /  29.4 °C 47.1 °F /  8.4 °C 29.64in /  1003.6hPa SE 4.9mph /  7.9km/h 10.0mph /  16.1km/h 27% 0.00in /  0mm 872.0 W/m2
10:41 85.3 °F /  29.6 °C 47.5 °F /  8.6 °C 29.64in /  1003.6hPa SE 13.0mph /  20.9km/h 15.0mph /  24.1km/h 27% 0.00in /  0mm 886.0 W/m2
10:46 85.5 °F /  29.7 °C 46.6 °F /  8.1 °C 29.64in /  1003.6hPa SSE 6.0mph /  9.7km/h 11.0mph /  17.7km/h 26% 0.00in /  0mm 895.0 W/m2
10:52 85.6 °F /  29.8 °C 46.8 °F /  8.2 °C 29.64in /  1003.6hPa SSE 4.9mph /  7.9km/h 18.0mph /  29km/h 26% 0.00in /  0mm 912.0 W/m2
10:57 85.8 °F /  29.9 °C 46.9 °F /  8.3 °C 29.64in /  1003.6hPa South 8.9mph /  14.3km/h 11.0mph /  17.7km/h 26% 0.00in /  0mm 921.0 W/m2
11:02 86.4 °F /  30.2 °C 47.5 °F /  8.6 °C 29.64in /  1003.6hPa SE 8.1mph /  13km/h 11.0mph /  17.7km/h 26% 0.00in /  0mm 930.0 W/m2
11:07 86.7 °F /  30.4 °C 47.7 °F /  8.7 °C 29.64in /  1003.6hPa SE 10.1mph /  16.3km/h 10.1mph /  16.3km/h 26% 0.00in /  0mm 940.0 W/m2
11:12 86.9 °F /  30.5 °C 46.8 °F /  8.2 °C 29.64in /  1003.6hPa SE 2.0mph /  3.2km/h 10.0mph /  16.1km/h 25% 0.00in /  0mm 953.0 W/m2
11:17 87.1 °F /  30.6 °C 46.9 °F /  8.3 °C 29.63in /  1003.3hPa East 2.0mph /  3.2km/h 10.0mph /  16.1km/h 25% 0.00in /  0mm 963.0 W/m2
11:22 87.1 °F /  30.6 °C 48.0 °F /  8.9 °C 29.63in /  1003.3hPa SE 11.0mph /  17.7km/h 11.0mph /  17.7km/h 26% 0.00in /  0mm 972.0 W/m2
11:27 87.3 °F /  30.7 °C 48.2 °F /  9 °C 29.63in /  1003.3hPa SE 8.1mph /  13km/h 10.0mph /  16.1km/h 26% 0.00in /  0mm 983.0 W/m2
11:33 87.6 °F /  30.9 °C 47.5 °F /  8.6 °C 29.63in /  1003.3hPa ESE 8.1mph /  13km/h 10.0mph /  16.1km/h 25% 0.00in /  0mm 990.0 W/m2
11:38 88.0 °F /  31.1 °C 47.8 °F /  8.8 °C 29.63in /  1003.3hPa SSE 6.0mph /  9.7km/h 7.0mph /  11.3km/h 25% 0.00in /  0mm 997.0 W/m2
11:43 88.2 °F /  31.2 °C 46.8 °F /  8.2 °C 29.63in /  1003.3hPa SE 2.0mph /  3.2km/h 8.0mph /  12.9km/h 24% 0.00in /  0mm 1000.0 W/m2
11:49 88.5 °F /  31.4 °C 47.1 °F /  8.4 °C 29.63in /  1003.3hPa ESE 2.0mph /  3.2km/h 8.0mph /  12.9km/h 24% 0.00in /  0mm 1011.0 W/m2
11:54 89.1 °F /  31.7 °C 47.7 °F /  8.7 °C 29.63in /  1003.3hPa ESE 4.0mph /  6.4km/h 8.0mph /  12.9km/h 24% 0.00in /  0mm 1016.0 W/m2
11:59 89.2 °F /  31.8 °C 47.7 °F /  8.7 °C 29.63in /  1003.3hPa East 2.9mph /  4.7km/h 8.0mph /  12.9km/h 24% 0.00in /  0mm 1025.0 W/m2
12:04 89.6 °F /  32 °C 48.0 °F /  8.9 °C 29.62in /  1002.9hPa SE 4.9mph /  7.9km/h 8.0mph /  12.9km/h 24% 0.00in /  0mm 1039.0 W/m2
12:09 89.8 °F /  32.1 °C 48.2 °F /  9 °C 29.62in /  1002.9hPa SSE 6.0mph /  9.7km/h 6.0mph /  9.7km/h 24% 0.00in /  0mm 1074.0 W/m2
12:14 90.0 °F /  32.2 °C 47.1 °F /  8.4 °C 29.62in /  1002.9hPa SE 2.0mph /  3.2km/h 8.0mph /  12.9km/h 23% 0.00in /  0mm 1072.0 W/m2
12:19 90.3 °F /  32.4 °C 47.5 °F /  8.6 °C 29.62in /  1002.9hPa WSW 2.0mph /  3.2km/h 7.0mph /  11.3km/h 23% 0.00in /  0mm 114.0 W/m2
12:24 89.6 °F /  32 °C 46.9 °F /  8.3 °C 29.62in /  1002.9hPa SE 4.9mph /  7.9km/h 7.0mph /  11.3km/h 23% 0.00in /  0mm 146.0 W/m2
12:29 88.9 °F /  31.6 °C 46.2 °F /  7.9 °C 29.61in /  1002.6hPa ESE 0.9mph /  1.4km/h 5.0mph /  8km/h 23% 0.00in /  0mm 1151.0 W/m2
12:34 89.2 °F /  31.8 °C 46.6 °F /  8.1 °C 29.61in /  1002.6hPa NNE 6.0mph /  9.7km/h 10.0mph /  16.1km/h 23% 0.00in /  0mm 1151.0 W/m2
12:40 90.0 °F /  32.2 °C 47.1 °F /  8.4 °C 29.61in /  1002.6hPa WSW 2.0mph /  3.2km/h 6.0mph /  9.7km/h 23% 0.00in /  0mm 1162.0 W/m2
12:45 90.0 °F /  32.2 °C 47.1 °F /  8.4 °C 29.61in /  1002.6hPa WSW 6.9mph /  11.1km/h 8.0mph /  12.9km/h 23% 0.00in /  0mm 1165.0 W/m2
12:51 89.2 °F /  31.8 °C 46.6 °F /  8.1 °C 29.61in /  1002.6hPa Calm   5.0mph /  8km/h 23% 0.00in /  0mm 244.0 W/m2
12:56 89.2 °F /  31.8 °C 46.6 °F /  8.1 °C 29.61in /  1002.6hPa SE 2.9mph /  4.7km/h 9.0mph /  14.5km/h 23% 0.00in /  0mm 1241.0 W/m2
13:01 89.8 °F /  32.1 °C 45.9 °F /  7.7 °C 29.60in /  1002.3hPa NNW 0.9mph /  1.4km/h 2.0mph /  3.2km/h 22% 0.00in /  0mm 1223.0 W/m2
13:06 90.3 °F /  32.4 °C 46.4 °F /  8 °C 29.60in /  1002.3hPa NW 0.9mph /  1.4km/h 6.0mph /  9.7km/h 22% 0.00in /  0mm 1266.0 W/m2
13:11 90.7 °F /  32.6 °C 46.6 °F /  8.1 °C 29.60in /  1002.3hPa Calm   4.0mph /  6.4km/h 22% 0.00in /  0mm 322.0 W/m2
13:16 90.7 °F /  32.6 °C 46.6 °F /  8.1 °C 29.60in /  1002.3hPa East 4.0mph /  6.4km/h 10.0mph /  16.1km/h 22% 0.00in /  0mm 237.0 W/m2
13:21 90.3 °F /  32.4 °C 46.4 °F /  8 °C 29.60in /  1002.3hPa Calm   6.0mph /  9.7km/h 22% 0.00in /  0mm 218.0 W/m2
13:27 90.3 °F /  32.4 °C 47.5 °F /  8.6 °C 29.60in /  1002.3hPa ESE 2.0mph /  3.2km/h 4.0mph /  6.4km/h 23% 0.00in /  0mm 216.0 W/m2
13:32 90.1 °F /  32.3 °C 46.2 °F /  7.9 °C 29.60in /  1002.3hPa South 0.9mph /  1.4km/h 2.0mph /  3.2km/h 22% 0.00in /  0mm 243.0 W/m2
13:37 90.0 °F /  32.2 °C 46.0 °F /  7.8 °C 29.60in /  1002.3hPa SE 2.0mph /  3.2km/h 3.0mph /  4.8km/h 22% 0.00in /  0mm 221.0 W/m2
13:42 89.6 °F /  32 °C 45.7 °F /  7.6 °C 29.59in /  1001.9hPa SSW 0.9mph /  1.4km/h 2.0mph /  3.2km/h 22% 0.00in /  0mm 281.0 W/m2
13:47 89.4 °F /  31.9 °C 45.5 °F /  7.5 °C 29.59in /  1001.9hPa South 0.9mph /  1.4km/h 3.0mph /  4.8km/h 22% 0.00in /  0mm 336.0 W/m2
13:52 89.4 °F /  31.9 °C 46.8 °F /  8.2 °C 29.59in /  1001.9hPa Calm   7.0mph /  11.3km/h 23% 0.00in /  0mm 352.0 W/m2
13:57 89.2 °F /  31.8 °C 46.6 °F /  8.1 °C 29.59in /  1001.9hPa SW 2.0mph /  3.2km/h 6.0mph /  9.7km/h 23% 0.00in /  0mm 413.0 W/m2
14:02 89.4 °F /  31.9 °C 46.8 °F /  8.2 °C 29.59in /  1001.9hPa South 2.0mph /  3.2km/h 4.0mph /  6.4km/h 23% 0.00in /  0mm 457.0 W/m2
14:07 89.8 °F /  32.1 °C 44.6 °F /  7 °C 29.58in /  1001.6hPa Calm   4.0mph /  6.4km/h 21% 0.00in /  0mm 1243.0 W/m2
14:12 90.3 °F /  32.4 °C 46.4 °F /  8 °C 29.58in /  1001.6hPa Calm   4.0mph /  6.4km/h 22% 0.00in /  0mm 1250.0 W/m2
14:17 91.6 °F /  33.1 °C 46.0 °F /  7.8 °C 29.58in /  1001.6hPa ESE 0.9mph /  1.4km/h 7.0mph /  11.3km/h 21% 0.00in /  0mm 1223.0 W/m2
14:22 92.8 °F /  33.8 °C 45.9 °F /  7.7 °C 29.57in /  1001.2hPa SSE 4.9mph /  7.9km/h 7.0mph /  11.3km/h 20% 0.00in /  0mm 1227.0 W/m2
14:28 93.9 °F /  34.4 °C 45.3 °F /  7.4 °C 29.57in /  1001.2hPa South 2.0mph /  3.2km/h 8.0mph /  12.9km/h 19% 0.00in /  0mm 1197.0 W/m2
14:33 94.1 °F /  34.5 °C 45.5 °F /  7.5 °C 29.57in /  1001.2hPa SW 2.0mph /  3.2km/h 5.0mph /  8km/h 19% 0.00in /  0mm 1216.0 W/m2
14:38 93.9 °F /  34.4 °C 45.3 °F /  7.4 °C 29.56in /  1000.9hPa SW 2.9mph /  4.7km/h 5.0mph /  8km/h 19% 0.00in /  0mm 1183.0 W/m2
14:43 93.9 °F /  34.4 °C 45.3 °F /  7.4 °C 29.56in /  1000.9hPa SSE 10.1mph /  16.3km/h 15.0mph /  24.1km/h 19% 0.00in /  0mm 1165.0 W/m2
14:48 94.3 °F /  34.6 °C 45.7 °F /  7.6 °C 29.56in /  1000.9hPa East 4.9mph /  7.9km/h 10.0mph /  16.1km/h 19% 0.00in /  0mm 1141.0 W/m2
14:53 94.6 °F /  34.8 °C 44.6 °F /  7 °C 29.55in /  1000.6hPa South 0.9mph /  1.4km/h 3.0mph /  4.8km/h 18% 0.00in /  0mm 1063.0 W/m2
14:58 94.6 °F /  34.8 °C 44.6 °F /  7 °C 29.55in /  1000.6hPa SSW 2.9mph /  4.7km/h 7.0mph /  11.3km/h 18% 0.00in /  0mm 1100.0 W/m2
15:03 94.5 °F /  34.7 °C 45.9 °F /  7.7 °C 29.54in /  1000.2hPa South 2.0mph /  3.2km/h 6.0mph /  9.7km/h 19% 0.00in /  0mm 1074.0 W/m2
15:08 94.5 °F /  34.7 °C 44.4 °F /  6.9 °C 29.54in /  1000.2hPa SSW 4.9mph /  7.9km/h 7.0mph /  11.3km/h 18% 0.00in /  0mm 1071.0 W/m2
15:14 94.5 °F /  34.7 °C 44.4 °F /  6.9 °C 29.54in /  1000.2hPa ESE 0.9mph /  1.4km/h 7.0mph /  11.3km/h 18% 0.00in /  0mm 1035.0 W/m2
15:19 95.4 °F /  35.2 °C 45.1 °F /  7.3 °C 29.54in /  1000.2hPa SSW 0.9mph /  1.4km/h 3.0mph /  4.8km/h 18% 0.00in /  0mm 1071.0 W/m2
15:24 95.7 °F /  35.4 °C 45.5 °F /  7.5 °C 29.54in /  1000.2hPa ESE 6.9mph /  11.1km/h 8.0mph /  12.9km/h 18% 0.00in /  0mm 267.0 W/m2
15:29 95.2 °F /  35.1 °C 43.5 °F /  6.4 °C 29.53in /  999.9hPa East 6.9mph /  11.1km/h 9.0mph /  14.5km/h 17% 0.00in /  0mm 236.0 W/m2
15:34 94.5 °F /  34.7 °C 44.4 °F /  6.9 °C 29.53in /  999.9hPa South 6.0mph /  9.7km/h 8.0mph /  12.9km/h 18% 0.00in /  0mm 292.0 W/m2
15:39 93.6 °F /  34.2 °C 43.7 °F /  6.5 °C 29.52in /  999.5hPa SW 2.0mph /  3.2km/h 9.0mph /  14.5km/h 18% 0.00in /  0mm 313.0 W/m2
15:44 93.4 °F /  34.1 °C 43.5 °F /  6.4 °C 29.52in /  999.5hPa SSE 2.0mph /  3.2km/h 7.0mph /  11.3km/h 18% 0.00in /  0mm 269.0 W/m2
15:49 92.8 °F /  33.8 °C 44.6 °F /  7 °C 29.52in /  999.5hPa SSE 0.9mph /  1.4km/h 5.0mph /  8km/h 19% 0.00in /  0mm 271.0 W/m2
15:54 92.7 °F /  33.7 °C 44.4 °F /  6.9 °C 29.52in /  999.5hPa Calm   3.0mph /  4.8km/h 19% 0.00in /  0mm 213.0 W/m2
16:00 92.5 °F /  33.6 °C 44.2 °F /  6.8 °C 29.52in /  999.5hPa SE 2.0mph /  3.2km/h 2.0mph /  3.2km/h 19% 0.00in /  0mm 179.0 W/m2
16:05 91.9 °F /  33.3 °C 43.7 °F /  6.5 °C 29.52in /  999.5hPa SE 4.9mph /  7.9km/h 10.0mph /  16.1km/h 19% 0.00in /  0mm 218.0 W/m2
16:10 91.6 °F /  33.1 °C 43.5 °F /  6.4 °C 29.51in /  999.2hPa SSE 2.9mph /  4.7km/h 8.0mph /  12.9km/h 19% 0.00in /  0mm 195.0 W/m2
16:15 91.2 °F /  32.9 °C 43.2 °F /  6.2 °C 29.51in /  999.2hPa SE 2.9mph /  4.7km/h 5.0mph /  8km/h 19% 0.00in /  0mm 160.0 W/m2
16:20 91.0 °F /  32.8 °C 43.0 °F /  6.1 °C 29.50in /  998.9hPa ESE 2.0mph /  3.2km/h 6.0mph /  9.7km/h 19% 0.00in /  0mm 121.0 W/m2
16:25 90.7 °F /  32.6 °C 42.8 °F /  6 °C 29.50in /  998.9hPa Calm   1.0mph /  1.6km/h 19% 0.00in /  0mm 98.0 W/m2
16:30 90.7 °F /  32.6 °C 44.1 °F /  6.7 °C 29.50in /  998.9hPa Calm   3.0mph /  4.8km/h 20% 0.00in /  0mm 100.0 W/m2
16:35 90.5 °F /  32.5 °C 42.6 °F /  5.9 °C 29.50in /  998.9hPa Calm     19% 0.00in /  0mm 90.0 W/m2
16:40 90.5 °F /  32.5 °C 43.9 °F /  6.6 °C 29.50in /  998.9hPa Calm   2.0mph /  3.2km/h 20% 0.00in /  0mm 67.0 W/m2
16:45 90.3 °F /  32.4 °C 42.4 °F /  5.8 °C 29.49in /  998.5hPa Calm   3.0mph /  4.8km/h 19% 0.00in /  0mm 53.0 W/m2
16:51 90.1 °F /  32.3 °C 42.3 °F /  5.7 °C 29.49in /  998.5hPa WSW 2.0mph /  3.2km/h 5.0mph /  8km/h 19% 0.00in /  0mm 47.0 W/m2
16:56 89.8 °F /  32.1 °C 42.1 °F /  5.6 °C 29.49in /  998.5hPa SSW 2.0mph /  3.2km/h 3.0mph /  4.8km/h 19% 0.00in /  0mm 49.0 W/m2
17:01 89.4 °F /  31.9 °C 43.0 °F /  6.1 °C 29.50in /  998.9hPa SE 2.0mph /  3.2km/h 5.0mph /  8km/h 20% 0.00in /  0mm 46.0 W/m2
17:06 89.2 °F /  31.8 °C 43.0 °F /  6.1 °C 29.50in /  998.9hPa North 6.9mph /  11.1km/h 7.0mph /  11.3km/h 20% 0.00in /  0mm 40.0 W/m2
17:11 88.2 °F /  31.2 °C 46.8 °F /  8.2 °C 29.50in /  998.9hPa NE 6.0mph /  9.7km/h 11.0mph /  17.7km/h 24% 0.00in /  0mm 35.0 W/m2
17:16 86.9 °F /  30.5 °C 46.8 °F /  8.2 °C 29.51in /  999.2hPa West 2.9mph /  4.7km/h 9.0mph /  14.5km/h 25% 0.00in /  0mm 35.0 W/m2
17:21 85.5 °F /  29.7 °C 50.5 °F /  10.3 °C 29.52in /  999.5hPa North 8.9mph /  14.3km/h 15.0mph /  24.1km/h 30% 0.00in /  0mm 33.0 W/m2
17:26 84.0 °F /  28.9 °C 51.8 °F /  11 °C 29.52in /  999.5hPa NNE 8.9mph /  14.3km/h 14.0mph /  22.5km/h 33% 0.00in /  0mm 39.0 W/m2
17:32 82.2 °F /  27.9 °C 50.2 °F /  10.1 °C 29.53in /  999.9hPa NNW 4.9mph /  7.9km/h 14.0mph /  22.5km/h 33% 0.00in /  0mm 40.0 W/m2
17:37 81.3 °F /  27.4 °C 52.5 °F /  11.4 °C 29.53in /  999.9hPa NE 13.0mph /  20.9km/h 17.0mph /  27.4km/h 37% 0.00in /  0mm 33.0 W/m2
17:43 79.5 °F /  26.4 °C 53.1 °F /  11.7 °C 29.54in /  1000.2hPa NE 8.9mph /  14.3km/h 14.0mph /  22.5km/h 40% 0.00in /  0mm 26.0 W/m2
17:48 78.6 °F /  25.9 °C 52.9 °F /  11.6 °C 29.54in /  1000.2hPa NNE 11.0mph /  17.7km/h 19.0mph /  30.6km/h 41% 0.00in /  0mm 30.0 W/m2
17:54 78.3 °F /  25.7 °C 53.2 °F /  11.8 °C 29.53in /  999.9hPa NNE 6.0mph /  9.7km/h 11.0mph /  17.7km/h 42% 0.00in /  0mm 40.0 W/m2
17:59 78.3 °F /  25.7 °C 53.2 °F /  11.8 °C 29.53in /  999.9hPa NNE 6.9mph /  11.1km/h 12.0mph /  19.3km/h 42% 0.00in /  0mm 60.0 W/m2
18:04 78.1 °F /  25.6 °C 53.8 °F /  12.1 °C 29.53in /  999.9hPa North 6.0mph /  9.7km/h 13.0mph /  20.9km/h 43% 0.00in /  0mm 113.0 W/m2
18:10 78.3 °F /  25.7 °C 54.5 °F /  12.5 °C 29.53in /  999.9hPa North 6.0mph /  9.7km/h 11.0mph /  17.7km/h 44% 0.00in /  0mm 134.0 W/m2
18:15 78.3 °F /  25.7 °C 55.2 °F /  12.9 °C 29.54in /  1000.2hPa NNE 6.0mph /  9.7km/h 13.0mph /  20.9km/h 45% 0.00in /  0mm 107.0 W/m2
18:21 78.1 °F /  25.6 °C 54.3 °F /  12.4 °C 29.55in /  1000.6hPa North 2.9mph /  4.7km/h 7.0mph /  11.3km/h 44% 0.00in /  0mm 62.0 W/m2
18:26 78.1 °F /  25.6 °C 54.3 °F /  12.4 °C 29.55in /  1000.6hPa ESE 2.9mph /  4.7km/h 4.0mph /  6.4km/h 44% 0.00in /  0mm 26.0 W/m2
18:31 78.1 °F /  25.6 °C 53.8 °F /  12.1 °C 29.57in /  1001.2hPa Calm   4.0mph /  6.4km/h 43% 0.00in /  0mm 14.0 W/m2
18:36 77.7 °F /  25.4 °C 52.9 °F /  11.6 °C 29.57in /  1001.2hPa Calm   1.0mph /  1.6km/h 42% 0.00in /  0mm 12.0 W/m2
18:41 77.7 °F /  25.4 °C 55.9 °F /  13.3 °C 29.57in /  1001.2hPa WNW 0.9mph /  1.4km/h 2.0mph /  3.2km/h 47% 0.00in /  0mm 18.0 W/m2
18:46 77.5 °F /  25.3 °C 57.4 °F /  14.1 °C 29.57in /  1001.2hPa Calm   6.0mph /  9.7km/h 50% 0.00in /  0mm 28.0 W/m2
18:51 77.2 °F /  25.1 °C 57.0 °F /  13.9 °C 29.57in /  1001.2hPa Calm   2.0mph /  3.2km/h 50% 0.00in /  0mm 26.0 W/m2
18:56 76.8 °F /  24.9 °C 55.6 °F /  13.1 °C 29.58in /  1001.6hPa Calm   2.0mph /  3.2km/h 48% 0.00in /  0mm 18.0 W/m2
19:02 76.8 °F /  24.9 °C 56.3 °F /  13.5 °C 29.58in /  1001.6hPa Calm   2.0mph /  3.2km/h 49% 0.00in /  0mm 11.0 W/m2
19:07 76.6 °F /  24.8 °C 55.4 °F /  13 °C 29.59in /  1001.9hPa Calm   1.0mph /  1.6km/h 48% 0.00in /  0mm 9.0 W/m2
19:12 76.5 °F /  24.7 °C 55.9 °F /  13.3 °C 29.59in /  1001.9hPa East 2.0mph /  3.2km/h 2.0mph /  3.2km/h 49% 0.00in /  0mm 7.0 W/m2
19:17 76.5 °F /  24.7 °C 57.0 °F /  13.9 °C 29.60in /  1002.3hPa Calm   1.0mph /  1.6km/h 51% 0.00in /  0mm 9.0 W/m2
19:22 76.5 °F /  24.7 °C 57.6 °F /  14.2 °C 29.60in /  1002.3hPa Calm   2.0mph /  3.2km/h 52% 0.00in /  0mm 9.0 W/m2
19:27 76.5 °F /  24.7 °C 57.0 °F /  13.9 °C 29.60in /  1002.3hPa Calm   1.0mph /  1.6km/h 51% 0.00in /  0mm 7.0 W/m2
19:32 76.5 °F /  24.7 °C 56.5 °F /  13.6 °C 29.59in /  1001.9hPa Calm   2.0mph /  3.2km/h 50% 0.00in /  0mm 9.0 W/m2
19:37 76.5 °F /  24.7 °C 54.7 °F /  12.6 °C 29.59in /  1001.9hPa NNE 2.0mph /  3.2km/h 4.0mph /  6.4km/h 47% 0.00in /  0mm 7.0 W/m2
19:42 76.5 °F /  24.7 °C 54.7 °F /  12.6 °C 29.59in /  1001.9hPa Calm   3.0mph /  4.8km/h 47% 0.00in /  0mm 0.0 W/m2
19:48 76.5 °F /  24.7 °C 54.1 °F /  12.3 °C 29.58in /  1001.6hPa Calm   1.0mph /  1.6km/h 46% 0.00in /  0mm 0.0 W/m2
19:53 76.6 °F /  24.8 °C 53.1 °F /  11.7 °C 29.59in /  1001.9hPa Calm   4.0mph /  6.4km/h 44% 0.00in /  0mm 0.0 W/m2
19:58 76.8 °F /  24.9 °C 53.2 °F /  11.8 °C 29.58in /  1001.6hPa NNE 2.0mph /  3.2km/h 4.0mph /  6.4km/h 44% 0.00in /  0mm 0.0 W/m2
20:03 76.8 °F /  24.9 °C 53.8 °F /  12.1 °C 29.58in /  1001.6hPa Calm   3.0mph /  4.8km/h 45% 0.00in /  0mm 0.0 W/m2
20:08 76.6 °F /  24.8 °C 52.5 °F /  11.4 °C 29.59in /  1001.9hPa Calm   5.0mph /  8km/h 43% 0.00in /  0mm 0.0 W/m2
20:13 76.8 °F /  24.9 °C 53.2 °F /  11.8 °C 29.60in /  1002.3hPa WSW 0.9mph /  1.4km/h 2.0mph /  3.2km/h 44% 0.00in /  0mm 0.0 W/m2
20:18 76.8 °F /  24.9 °C 52.7 °F /  11.5 °C 29.61in /  1002.6hPa West 2.0mph /  3.2km/h 7.0mph /  11.3km/h 43% 0.00in /  0mm 0.0 W/m2
20:23 77.2 °F /  25.1 °C 53.6 °F /  12 °C 29.61in /  1002.6hPa Calm   8.0mph /  12.9km/h 44% 0.00in /  0mm 0.0 W/m2
20:29 77.2 °F /  25.1 °C 55.4 °F /  13 °C 29.62in /  1002.9hPa WSW 2.9mph /  4.7km/h 7.0mph /  11.3km/h 47% 0.00in /  0mm 0.0 W/m2
20:34 76.6 °F /  24.8 °C 56.7 °F /  13.7 °C 29.62in /  1002.9hPa SSW 6.0mph /  9.7km/h 10.0mph /  16.1km/h 50% 0.00in /  0mm 0.0 W/m2
20:39 75.9 °F /  24.4 °C 56.5 °F /  13.6 °C 29.63in /  1003.3hPa Calm   6.0mph /  9.7km/h 51% 0.00in /  0mm 0.0 W/m2
20:44 75.7 °F /  24.3 °C 56.8 °F /  13.8 °C 29.63in /  1003.3hPa Calm   5.0mph /  8km/h 52% 0.00in /  0mm 0.0 W/m2
20:49 75.4 °F /  24.1 °C 55.9 °F /  13.3 °C 29.63in /  1003.3hPa Calm   2.0mph /  3.2km/h 51% 0.00in /  0mm 0.0 W/m2
20:54 75.4 °F /  24.1 °C 56.5 °F /  13.6 °C 29.63in /  1003.3hPa SE 0.9mph /  1.4km/h 4.0mph /  6.4km/h 52% 0.00in /  0mm 0.0 W/m2
20:59 75.0 °F /  23.9 °C 55.6 °F /  13.1 °C 29.63in /  1003.3hPa SW 0.9mph /  1.4km/h 3.0mph /  4.8km/h 51% 0.00in /  0mm 0.0 W/m2
21:04 75.0 °F /  23.9 °C 56.1 °F /  13.4 °C 29.63in /  1003.3hPa Calm   2.0mph /  3.2km/h 52% 0.00in /  0mm 0.0 W/m2
21:09 74.8 °F /  23.8 °C 56.5 °F /  13.6 °C 29.63in /  1003.3hPa SE 0.9mph /  1.4km/h 3.0mph /  4.8km/h 53% 0.00in /  0mm 0.0 W/m2
21:15 74.7 °F /  23.7 °C 56.5 °F /  13.6 °C 29.63in /  1003.3hPa Calm     53% 0.00in /  0mm 0.0 W/m2
21:20 74.7 °F /  23.7 °C 56.8 °F /  13.8 °C 29.64in /  1003.6hPa Calm   1.0mph /  1.6km/h 54% 0.00in /  0mm 0.0 W/m2
21:25 74.5 °F /  23.6 °C 55.2 °F /  12.9 °C 29.64in /  1003.6hPa Calm   3.0mph /  4.8km/h 51% 0.00in /  0mm 0.0 W/m2
21:30 74.5 °F /  23.6 °C 54.7 °F /  12.6 °C 29.65in /  1003.9hPa Calm   1.0mph /  1.6km/h 50% 0.00in /  0mm 0.0 W/m2
21:35 74.7 °F /  23.7 °C 54.9 °F /  12.7 °C 29.65in /  1003.9hPa SSW 0.9mph /  1.4km/h 1.0mph /  1.6km/h 50% 0.00in /  0mm 0.0 W/m2
21:40 74.7 °F /  23.7 °C 54.9 °F /  12.7 °C 29.65in /  1003.9hPa Calm   1.0mph /  1.6km/h 50% 0.00in /  0mm 0.0 W/m2
21:45 74.7 °F /  23.7 °C 54.9 °F /  12.7 °C 29.65in /  1003.9hPa Calm     50% 0.00in /  0mm 0.0 W/m2
21:50 74.7 °F /  23.7 °C 53.6 °F /  12 °C 29.65in /  1003.9hPa WNW 0.9mph /  1.4km/h 5.0mph /  8km/h 48% 0.00in /  0mm 0.0 W/m2
21:55 74.7 °F /  23.7 °C 53.1 °F /  11.7 °C 29.65in /  1003.9hPa West 2.0mph /  3.2km/h 3.0mph /  4.8km/h 47% 0.00in /  0mm 0.0 W/m2
22:01 74.7 °F /  23.7 °C 53.1 °F /  11.7 °C 29.65in /  1003.9hPa Calm   1.0mph /  1.6km/h 47% 0.00in /  0mm 0.0 W/m2
22:06 74.8 °F /  23.8 °C 53.2 °F /  11.8 °C 29.65in /  1003.9hPa Calm     47% 0.00in /  0mm 0.0 W/m2
22:11 74.8 °F /  23.8 °C 53.2 °F /  11.8 °C 29.65in /  1003.9hPa Calm     47% 0.00in /  0mm 0.0 W/m2
22:16 74.8 °F /  23.8 °C 52.7 °F /  11.5 °C 29.65in /  1003.9hPa Calm     46% 0.00in /  0mm 0.0 W/m2
22:21 74.7 °F /  23.7 °C 52.5 °F /  11.4 °C 29.65in /  1003.9hPa Calm     46% 0.00in /  0mm 0.0 W/m2
22:26 74.7 °F /  23.7 °C 53.1 °F /  11.7 °C 29.65in /  1003.9hPa Calm     47% 0.00in /  0mm 0.0 W/m2
22:31 74.7 °F /  23.7 °C 53.1 °F /  11.7 °C 29.65in /  1003.9hPa Calm     47% 0.00in /  0mm 0.0 W/m2
22:37 74.7 °F /  23.7 °C 53.1 °F /  11.7 °C 29.65in /  1003.9hPa Calm   2.0mph /  3.2km/h 47% 0.00in /  0mm 0.0 W/m2
22:42 74.7 °F /  23.7 °C 53.1 °F /  11.7 °C 29.65in /  1003.9hPa Calm   1.0mph /  1.6km/h 47% 0.00in /  0mm 0.0 W/m2
22:47 74.7 °F /  23.7 °C 53.6 °F /  12 °C 29.66in /  1004.3hPa Calm   1.0mph /  1.6km/h 48% 0.00in /  0mm 0.0 W/m2
22:53 74.5 °F /  23.6 °C 52.9 °F /  11.6 °C 29.65in /  1003.9hPa Calm   1.0mph /  1.6km/h 47% 0.00in /  0mm 0.0 W/m2
22:58 74.5 °F /  23.6 °C 52.9 °F /  11.6 °C 29.65in /  1003.9hPa Calm     47% 0.00in /  0mm 0.0 W/m2
23:03 74.5 °F /  23.6 °C 52.9 °F /  11.6 °C 29.65in /  1003.9hPa Calm     47% 0.00in /  0mm 0.0 W/m2
23:08 74.5 °F /  23.6 °C 52.9 °F /  11.6 °C 29.66in /  1004.3hPa Calm     47% 0.00in /  0mm 0.0 W/m2
23:13 74.3 °F /  23.5 °C 53.4 °F /  11.9 °C 29.66in /  1004.3hPa Calm   1.0mph /  1.6km/h 48% 0.00in /  0mm 0.0 W/m2
23:18 74.1 °F /  23.4 °C 53.8 °F /  12.1 °C 29.66in /  1004.3hPa Calm     49% 0.00in /  0mm 0.0 W/m2
23:23 73.9 °F /  23.3 °C 53.6 °F /  12 °C 29.66in /  1004.3hPa NE 2.0mph /  3.2km/h 3.0mph /  4.8km/h 49% 0.00in /  0mm 0.0 W/m2
23:28 73.8 °F /  23.2 °C 54.0 °F /  12.2 °C 29.66in /  1004.3hPa Calm   1.0mph /  1.6km/h 50% 0.00in /  0mm 0.0 W/m2
23:33 73.6 °F /  23.1 °C 53.2 °F /  11.8 °C 29.66in /  1004.3hPa NE 2.9mph /  4.7km/h 4.0mph /  6.4km/h 49% 0.00in /  0mm 0.0 W/m2
23:38 73.6 °F /  23.1 °C 53.2 °F /  11.8 °C 29.66in /  1004.3hPa ENE 2.0mph /  3.2km/h 3.0mph /  4.8km/h 49% 0.00in /  0mm 0.0 W/m2
23:43 73.4 °F /  23 °C 53.1 °F /  11.7 °C 29.66in /  1004.3hPa Calm   2.0mph /  3.2km/h 49% 0.00in /  0mm 0.0 W/m2
23:48 73.4 °F /  23 °C 53.6 °F /  12 °C 29.66in /  1004.3hPa Calm   1.0mph /  1.6km/h 50% 0.00in /  0mm 0.0 W/m2
23:54 73.4 °F /  23 °C 53.6 °F /  12 °C 29.65in /  1003.9hPa Calm   1.0mph /  1.6km/h 50% 0.00in /  0mm 0.0 W/m2
23:59 73.4 °F /  23 °C 53.6 °F /  12 °C 29.65in /  1003.9hPa Calm     50% 0.00in /  0mm 0.0 W/m2
Olympia, Windhoek, Namibia
Compliments of Weather Underground - 3.25 mb